sensor_id;sensor_type;location;lat;lon;timestamp;pressure;altitude;pressure_sealevel;temperature;humidity
47883;BME280;37739;50.350;7.578;2022-08-07T00:01:07;100604.25;;;18.50;41.23
47883;BME280;37739;50.350;7.578;2022-08-07T00:03:35;100606.84;;;18.50;41.00
47883;BME280;37739;50.350;7.578;2022-08-07T00:06:01;100601.19;;;18.25;41.81
47883;BME280;37739;50.350;7.578;2022-08-07T00:08:26;100601.19;;;18.25;41.63
47883;BME280;37739;50.350;7.578;2022-08-07T00:10:52;100600.38;;;18.27;41.35
47883;BME280;37739;50.350;7.578;2022-08-07T00:13:19;100608.16;;;18.28;41.37
47883;BME280;37739;50.350;7.578;2022-08-07T00:15:45;100601.13;;;18.21;41.52
47883;BME280;37739;50.350;7.578;2022-08-07T00:18:15;100602.00;;;18.21;41.37
47883;BME280;37739;50.350;7.578;2022-08-07T00:20:43;100593.19;;;18.15;41.53
47883;BME280;37739;50.350;7.578;2022-08-07T00:23:08;100597.63;;;18.19;41.32
47883;BME280;37739;50.350;7.578;2022-08-07T00:25:36;100599.41;;;18.21;41.63
47883;BME280;37739;50.350;7.578;2022-08-07T00:28:04;100593.22;;;18.16;41.64
47883;BME280;37739;50.350;7.578;2022-08-07T00:30:31;100588.00;;;18.13;41.59
47883;BME280;37739;50.350;7.578;2022-08-07T00:33:00;100588.84;;;18.12;41.69
47883;BME280;37739;50.350;7.578;2022-08-07T00:35:26;100593.00;;;18.04;42.30
47883;BME280;37739;50.350;7.578;2022-08-07T00:37:52;100588.59;;;18.00;42.26
47883;BME280;37739;50.350;7.578;2022-08-07T00:40:18;100589.47;;;18.00;42.15
47883;BME280;37739;50.350;7.578;2022-08-07T00:42:45;100585.94;;;17.97;42.38
47883;BME280;37739;50.350;7.578;2022-08-07T00:45:11;100589.47;;;18.00;42.28
47883;BME280;37739;50.350;7.578;2022-08-07T00:47:36;100579.03;;;17.96;42.81
47883;BME280;37739;50.350;7.578;2022-08-07T00:50:02;100588.19;;;17.81;42.65
47883;BME280;37739;50.350;7.578;2022-08-07T00:52:31;100583.91;;;17.83;42.95
47883;BME280;37739;50.350;7.578;2022-08-07T00:54:58;100576.09;;;17.82;42.57
47883;BME280;37739;50.350;7.578;2022-08-07T00:57:29;100574.31;;;17.79;42.78
47883;BME280;37739;50.350;7.578;2022-08-07T00:59:57;100575.19;;;17.78;42.83
47883;BME280;37739;50.350;7.578;2022-08-07T01:02:25;100570.78;;;17.76;43.32
47883;BME280;37739;50.350;7.578;2022-08-07T01:04:51;100569.00;;;17.73;42.78
47883;BME280;37739;50.350;7.578;2022-08-07T01:07:21;100561.91;;;17.64;43.47
47883;BME280;37739;50.350;7.578;2022-08-07T01:09:49;100571.50;;;17.67;43.27
47883;BME280;37739;50.350;7.578;2022-08-07T01:12:17;100567.00;;;17.60;43.53
47883;BME280;37739;50.350;7.578;2022-08-07T01:14:43;100568.59;;;17.52;43.72
47883;BME280;37739;50.350;7.578;2022-08-07T01:17:09;100569.44;;;17.52;43.54
47883;BME280;37739;50.350;7.578;2022-08-07T01:19:37;100562.41;;;17.46;43.77
47883;BME280;37739;50.350;7.578;2022-08-07T01:22:06;100566.78;;;17.49;43.56
47883;BME280;37739;50.350;7.578;2022-08-07T01:24:31;100566.63;;;17.41;44.46
47883;BME280;37739;50.350;7.578;2022-08-07T01:26:58;100563.22;;;17.44;44.00
47883;BME280;37739;50.350;7.578;2022-08-07T01:29:27;100558.19;;;17.52;43.68
47883;BME280;37739;50.350;7.578;2022-08-07T01:31:52;100555.56;;;17.50;43.77
47883;BME280;37739;50.350;7.578;2022-08-07T01:34:21;100559.00;;;17.48;44.00
47883;BME280;37739;50.350;7.578;2022-08-07T01:36:49;100558.84;;;17.41;44.20
47883;BME280;37739;50.350;7.578;2022-08-07T01:39:15;100556.06;;;17.34;44.45
47883;BME280;37739;50.350;7.578;2022-08-07T01:41:43;100563.00;;;17.33;44.42
47883;BME280;37739;50.350;7.578;2022-08-07T01:44:09;100555.03;;;17.25;44.44
47883;BME280;37739;50.350;7.578;2022-08-07T01:46:35;100562.91;;;17.30;44.36
47883;BME280;37739;50.350;7.578;2022-08-07T01:49:01;100558.34;;;17.18;44.81
47883;BME280;37739;50.350;7.578;2022-08-07T01:51:27;100556.69;;;17.22;44.94
47883;BME280;37739;50.350;7.578;2022-08-07T01:53:55;100554.91;;;17.19;44.89
47883;BME280;37739;50.350;7.578;2022-08-07T01:56:26;100561.66;;;17.11;45.69
47883;BME280;37739;50.350;7.578;2022-08-07T01:59:14;100556.47;;;17.13;46.31
47883;BME280;37739;50.350;7.578;2022-08-07T02:01:42;100560.59;;;17.03;45.78
47883;BME280;37739;50.350;7.578;2022-08-07T02:04:29;100554.44;;;16.98;46.99
47883;BME280;37739;50.350;7.578;2022-08-07T02:06:58;100553.72;;;17.05;45.66
47883;BME280;37739;50.350;7.578;2022-08-07T02:09:27;100564.25;;;17.11;45.52
47883;BME280;37739;50.350;7.578;2022-08-07T02:11:55;100563.16;;;17.01;45.98
47883;BME280;37739;50.350;7.578;2022-08-07T02:14:23;100557.13;;;17.02;46.02
47883;BME280;37739;50.350;7.578;2022-08-07T02:16:53;100564.81;;;16.98;46.12
47883;BME280;37739;50.350;7.578;2022-08-07T02:19:21;100562.72;;;16.83;46.34
47883;BME280;37739;50.350;7.578;2022-08-07T02:21:48;100559.91;;;16.75;47.44
47883;BME280;37739;50.350;7.578;2022-08-07T02:24:16;100558.81;;;16.65;47.03
47883;BME280;37739;50.350;7.578;2022-08-07T02:26:45;100557.09;;;16.66;47.80
47883;BME280;37739;50.350;7.578;2022-08-07T02:29:11;100555.91;;;16.53;47.45
47883;BME280;37739;50.350;7.578;2022-08-07T02:31:39;100556.88;;;16.57;47.50
47883;BME280;37739;50.350;7.578;2022-08-07T02:34:05;100555.16;;;16.57;47.26
47883;BME280;37739;50.350;7.578;2022-08-07T02:36:31;100552.50;;;16.54;47.43
47883;BME280;37739;50.350;7.578;2022-08-07T02:39:02;100555.91;;;16.52;47.66
47883;BME280;37739;50.350;7.578;2022-08-07T02:41:28;100549.56;;;16.40;48.16
47883;BME280;37739;50.350;7.578;2022-08-07T02:43:57;100546.81;;;16.34;48.34
47883;BME280;37739;50.350;7.578;2022-08-07T02:46:26;100548.50;;;16.32;49.12
47883;BME280;37739;50.350;7.578;2022-08-07T02:48:53;100541.22;;;16.17;48.64
47883;BME280;37739;50.350;7.578;2022-08-07T02:51:22;100549.19;;;16.25;49.43
47883;BME280;37739;50.350;7.578;2022-08-07T02:53:49;100551.75;;;16.25;48.87
47883;BME280;37739;50.350;7.578;2022-08-07T02:56:20;100545.59;;;16.20;49.03
47883;BME280;37739;50.350;7.578;2022-08-07T02:58:46;100549.94;;;16.22;48.90
47883;BME280;37739;50.350;7.578;2022-08-07T03:01:14;100549.03;;;16.20;48.88
47883;BME280;37739;50.350;7.578;2022-08-07T03:03:43;100543.78;;;16.17;49.20
47883;BME280;37739;50.350;7.578;2022-08-07T03:06:12;100543.75;;;16.16;49.19
47883;BME280;37739;50.350;7.578;2022-08-07T03:08:41;100544.41;;;16.08;49.88
47883;BME280;37739;50.350;7.578;2022-08-07T03:11:07;100538.38;;;16.08;49.47
47883;BME280;37739;50.350;7.578;2022-08-07T03:13:34;100550.31;;;16.03;49.70
47883;BME280;37739;50.350;7.578;2022-08-07T03:16:00;100550.28;;;16.01;49.63
47883;BME280;37739;50.350;7.578;2022-08-07T03:18:26;100544.91;;;15.95;49.88
47883;BME280;37739;50.350;7.578;2022-08-07T03:20:53;100539.59;;;15.89;50.14
47883;BME280;37739;50.350;7.578;2022-08-07T03:23:19;100536.13;;;15.88;50.22
47883;BME280;37739;50.350;7.578;2022-08-07T03:25:45;100531.72;;;15.84;50.31
47883;BME280;37739;50.350;7.578;2022-08-07T03:28:15;100531.72;;;15.84;50.48
47883;BME280;37739;50.350;7.578;2022-08-07T03:30:42;100530.16;;;15.91;50.42
47883;BME280;37739;50.350;7.578;2022-08-07T03:33:08;100529.19;;;15.87;50.43
47883;BME280;37739;50.350;7.578;2022-08-07T03:35:35;100530.75;;;15.81;50.67
47883;BME280;37739;50.350;7.578;2022-08-07T03:38:06;100525.22;;;15.70;51.00
47883;BME280;37739;50.350;7.578;2022-08-07T03:40:32;100524.41;;;15.71;50.87
47883;BME280;37739;50.350;7.578;2022-08-07T03:43:01;100531.25;;;15.69;51.28
47883;BME280;37739;50.350;7.578;2022-08-07T03:45:29;100526.69;;;15.60;51.22
47883;BME280;37739;50.350;7.578;2022-08-07T03:47:56;100518.88;;;15.59;51.40
47883;BME280;37739;50.350;7.578;2022-08-07T03:50:23;100525.81;;;15.60;51.32
47883;BME280;37739;50.350;7.578;2022-08-07T03:52:51;100520.59;;;15.58;51.48
47883;BME280;37739;50.350;7.578;2022-08-07T03:55:19;100524.06;;;15.59;51.51
47883;BME280;37739;50.350;7.578;2022-08-07T03:57:45;100529.38;;;15.63;51.14
47883;BME280;37739;50.350;7.578;2022-08-07T04:00:12;100524.16;;;15.62;51.20
47883;BME280;37739;50.350;7.578;2022-08-07T04:02:38;100524.69;;;15.50;51.46
47883;BME280;37739;50.350;7.578;2022-08-07T04:05:06;100522.97;;;15.50;51.66
47883;BME280;37739;50.350;7.578;2022-08-07T04:07:34;100534.72;;;15.39;52.03
47883;BME280;37739;50.350;7.578;2022-08-07T04:10:00;100530.56;;;15.44;52.10
47883;BME280;37739;50.350;7.578;2022-08-07T04:12:29;100536.59;;;15.45;51.48
47883;BME280;37739;50.350;7.578;2022-08-07T04:14:58;100539.97;;;15.42;52.28
47883;BME280;37739;50.350;7.578;2022-08-07T04:17:26;100539.41;;;15.52;51.59
47883;BME280;37739;50.350;7.578;2022-08-07T04:19:51;100533.19;;;15.46;51.75
47883;BME280;37739;50.350;7.578;2022-08-07T04:22:21;100534.16;;;15.49;52.07
47883;BME280;37739;50.350;7.578;2022-08-07T04:24:51;100537.56;;;15.48;51.83
47883;BME280;37739;50.350;7.578;2022-08-07T04:27:19;100539.34;;;15.49;52.01
47883;BME280;37739;50.350;7.578;2022-08-07T04:29:44;100549.41;;;15.40;52.36
47883;BME280;37739;50.350;7.578;2022-08-07T04:32:10;100544.19;;;15.39;52.16
47883;BME280;37739;50.350;7.578;2022-08-07T04:34:38;100545.94;;;15.40;52.07
47883;BME280;37739;50.350;7.578;2022-08-07T04:37:04;100546.66;;;15.36;52.49
47883;BME280;37739;50.350;7.578;2022-08-07T04:39:31;100549.47;;;15.43;52.41
47883;BME280;37739;50.350;7.578;2022-08-07T04:41:57;100558.25;;;15.48;52.29
47883;BME280;37739;50.350;7.578;2022-08-07T04:44:22;100553.00;;;15.45;52.32
47883;BME280;37739;50.350;7.578;2022-08-07T04:47:28;100546.03;;;15.43;53.83
47883;BME280;37739;50.350;7.578;2022-08-07T04:52:58;100554.34;;;15.32;54.15
47883;BME280;37739;50.350;7.578;2022-08-07T04:55:42;100558.81;;;15.38;53.76
47883;BME280;37739;50.350;7.578;2022-08-07T04:58:23;100563.25;;;15.42;53.58
47883;BME280;37739;50.350;7.578;2022-08-07T05:00:58;100561.75;;;15.50;52.64
47883;BME280;37739;50.350;7.578;2022-08-07T05:03:38;100559.22;;;15.52;52.91
47883;BME280;37739;50.350;7.578;2022-08-07T05:06:34;100566.06;;;15.50;53.89
47883;BME280;37739;50.350;7.578;2022-08-07T05:09:16;100572.06;;;15.49;53.29
47883;BME280;37739;50.350;7.578;2022-08-07T05:11:49;100574.69;;;15.50;52.45
47883;BME280;37739;50.350;7.578;2022-08-07T05:14:24;100573.78;;;15.48;53.09
47883;BME280;37739;50.350;7.578;2022-08-07T05:16:56;100572.78;;;15.45;53.23
47883;BME280;37739;50.350;7.578;2022-08-07T05:19:24;100567.78;;;15.51;52.64
47883;BME280;37739;50.350;7.578;2022-08-07T05:21:55;100573.13;;;15.56;52.78
47883;BME280;37739;50.350;7.578;2022-08-07T05:24:23;100569.44;;;15.76;52.20
47883;BME280;37739;50.350;7.578;2022-08-07T05:26:56;100578.56;;;15.95;52.42
47883;BME280;37739;50.350;7.578;2022-08-07T05:29:23;100584.41;;;16.20;51.43
47883;BME280;37739;50.350;7.578;2022-08-07T05:31:52;100582.13;;;16.31;51.30
47883;BME280;37739;50.350;7.578;2022-08-07T05:34:18;100584.81;;;16.35;51.10
47883;BME280;37739;50.350;7.578;2022-08-07T05:36:51;100580.59;;;16.39;51.28
47883;BME280;37739;50.350;7.578;2022-08-07T05:39:21;100578.63;;;16.28;52.32
47883;BME280;37739;50.350;7.578;2022-08-07T05:41:47;100580.75;;;16.45;51.00
47883;BME280;37739;50.350;7.578;2022-08-07T05:44:14;100595.56;;;16.51;50.91
47883;BME280;37739;50.350;7.578;2022-08-07T05:46:45;100593.66;;;16.10;51.85
47883;BME280;37739;50.350;7.578;2022-08-07T05:49:11;100591.38;;;16.22;51.80
47883;BME280;37739;50.350;7.578;2022-08-07T05:51:37;100593.28;;;16.29;51.36
47883;BME280;37739;50.350;7.578;2022-08-07T05:54:03;100593.75;;;16.13;51.68
47883;BME280;37739;50.350;7.578;2022-08-07T05:56:35;100591.56;;;16.28;51.82
47883;BME280;37739;50.350;7.578;2022-08-07T05:59:01;100590.91;;;16.37;51.01
47883;BME280;37739;50.350;7.578;2022-08-07T06:01:29;100596.75;;;16.28;51.42
47883;BME280;37739;50.350;7.578;2022-08-07T06:03:56;100595.53;;;16.16;51.55
47883;BME280;37739;50.350;7.578;2022-08-07T06:06:23;100608.56;;;16.19;51.62
47883;BME280;37739;50.350;7.578;2022-08-07T06:08:52;100601.72;;;16.21;51.56
47883;BME280;37739;50.350;7.578;2022-08-07T06:11:18;100598.97;;;16.48;51.82
47883;BME280;37739;50.350;7.578;2022-08-07T06:13:43;100591.81;;;16.39;51.51
47883;BME280;37739;50.350;7.578;2022-08-07T06:16:09;100598.72;;;16.39;51.59
47883;BME280;37739;50.350;7.578;2022-08-07T06:18:35;100606.78;;;16.51;51.03
47883;BME280;37739;50.350;7.578;2022-08-07T06:21:01;100611.50;;;16.66;50.54
47883;BME280;37739;50.350;7.578;2022-08-07T06:23:28;100609.06;;;16.72;50.49
47883;BME280;37739;50.350;7.578;2022-08-07T06:25:56;100611.53;;;16.67;50.60
47883;BME280;37739;50.350;7.578;2022-08-07T06:28:22;100599.34;;;16.63;50.56
47883;BME280;37739;50.350;7.578;2022-08-07T06:30:50;100599.22;;;16.57;51.04
47883;BME280;37739;50.350;7.578;2022-08-07T06:33:18;100601.09;;;16.64;50.49
47883;BME280;37739;50.350;7.578;2022-08-07T06:35:44;100594.28;;;16.68;50.40
47883;BME280;37739;50.350;7.578;2022-08-07T06:38:17;100592.00;;;16.80;50.45
47883;BME280;37739;50.350;7.578;2022-08-07T06:40:47;100592.88;;;16.81;50.60
47883;BME280;37739;50.350;7.578;2022-08-07T06:43:15;100588.63;;;16.83;50.54
47883;BME280;37739;50.350;7.578;2022-08-07T06:45:42;100593.16;;;16.92;50.80
47883;BME280;37739;50.350;7.578;2022-08-07T06:48:08;100588.31;;;17.05;50.04
47883;BME280;37739;50.350;7.578;2022-08-07T06:50:34;100584.06;;;17.09;50.30
47883;BME280;37739;50.350;7.578;2022-08-07T06:53:02;100575.88;;;17.29;49.92
47883;BME280;37739;50.350;7.578;2022-08-07T06:55:29;100582.00;;;17.32;50.00
47883;BME280;37739;50.350;7.578;2022-08-07T06:58:03;100578.28;;;17.21;50.50
47883;BME280;37739;50.350;7.578;2022-08-07T07:00:33;100582.22;;;17.43;49.67
47883;BME280;37739;50.350;7.578;2022-08-07T07:03:03;100582.88;;;17.33;49.91
47883;BME280;37739;50.350;7.578;2022-08-07T07:05:29;100582.09;;;17.37;49.85
47883;BME280;37739;50.350;7.578;2022-08-07T07:07:57;100584.06;;;17.49;49.38
47883;BME280;37739;50.350;7.578;2022-08-07T07:10:27;100578.78;;;17.44;49.66
47883;BME280;37739;50.350;7.578;2022-08-07T07:12:55;100582.41;;;17.52;49.60
47883;BME280;37739;50.350;7.578;2022-08-07T07:15:35;100587.19;;;17.34;49.72
47883;BME280;37739;50.350;7.578;2022-08-07T07:20:35;100582.06;;;17.78;48.74
47883;BME280;37739;50.350;7.578;2022-08-07T07:23:08;100576.31;;;17.91;48.65
47883;BME280;37739;50.350;7.578;2022-08-07T07:25:36;100577.19;;;17.92;48.26
47883;BME280;37739;50.350;7.578;2022-08-07T07:28:24;100576.78;;;18.16;47.99
47883;BME280;37739;50.350;7.578;2022-08-07T07:31:03;100565.91;;;18.37;47.58
47883;BME280;37739;50.350;7.578;2022-08-07T07:33:32;100572.31;;;18.57;46.71
47883;BME280;37739;50.350;7.578;2022-08-07T07:36:01;100569.97;;;18.73;46.42
47883;BME280;37739;50.350;7.578;2022-08-07T07:38:27;100567.63;;;18.87;45.71
47883;BME280;37739;50.350;7.578;2022-08-07T07:41:00;100570.25;;;18.88;45.26
47883;BME280;37739;50.350;7.578;2022-08-07T07:43:29;100565.84;;;18.86;44.91
47883;BME280;37739;50.350;7.578;2022-08-07T07:45:55;100561.63;;;18.91;44.95
47883;BME280;37739;50.350;7.578;2022-08-07T07:48:25;100559.03;;;18.92;45.00
47883;BME280;37739;50.350;7.578;2022-08-07T07:50:52;100557.34;;;18.94;43.94
47883;BME280;37739;50.350;7.578;2022-08-07T07:53:21;100560.22;;;19.14;44.08
47883;BME280;37739;50.350;7.578;2022-08-07T07:55:47;100552.44;;;19.16;44.20
47883;BME280;37739;50.350;7.578;2022-08-07T07:58:16;100554.25;;;19.21;44.30
47883;BME280;37739;50.350;7.578;2022-08-07T08:00:45;100563.16;;;19.39;43.81
47883;BME280;37739;50.350;7.578;2022-08-07T08:03:14;100554.38;;;19.31;44.06
47883;BME280;37739;50.350;7.578;2022-08-07T08:05:44;100562.47;;;19.52;43.81
47883;BME280;37739;50.350;7.578;2022-08-07T08:08:13;100547.91;;;19.68;43.47
47883;BME280;37739;50.350;7.578;2022-08-07T08:10:41;100550.53;;;19.70;43.62
47883;BME280;37739;50.350;7.578;2022-08-07T08:13:11;100547.03;;;19.68;43.21
47883;BME280;37739;50.350;7.578;2022-08-07T08:15:39;100546.31;;;19.78;42.96
47883;BME280;37739;50.350;7.578;2022-08-07T08:18:08;100550.84;;;19.94;42.67
47883;BME280;37739;50.350;7.578;2022-08-07T08:20:38;100540.53;;;20.07;42.20
47883;BME280;37739;50.350;7.578;2022-08-07T08:23:07;100550.13;;;20.11;41.54
47883;BME280;37739;50.350;7.578;2022-08-07T08:25:58;100540.50;;;20.05;42.58
47883;BME280;37739;50.350;7.578;2022-08-07T08:28:44;100538.97;;;20.24;41.66
47883;BME280;37739;50.350;7.578;2022-08-07T08:31:13;100536.44;;;20.32;41.66
47883;BME280;37739;50.350;7.578;2022-08-07T08:33:40;100533.91;;;20.41;41.01
47883;BME280;37739;50.350;7.578;2022-08-07T08:36:07;100535.75;;;20.54;40.78
47883;BME280;37739;50.350;7.578;2022-08-07T08:38:40;100535.09;;;20.77;41.06
47883;BME280;37739;50.350;7.578;2022-08-07T08:46:47;100524.94;;;21.28;39.02
47883;BME280;37739;50.350;7.578;2022-08-07T08:49:41;100520.66;;;21.39;38.63
47883;BME280;37739;50.350;7.578;2022-08-07T08:52:20;100514.56;;;21.43;38.84
47883;BME280;37739;50.350;7.578;2022-08-07T08:55:09;100522.53;;;21.62;39.15
47883;BME280;37739;50.350;7.578;2022-08-07T09:00:13;100506.03;;;22.00;38.21
47883;BME280;37739;50.350;7.578;2022-08-07T09:03:00;100509.53;;;22.09;37.43
47883;BME280;37739;50.350;7.578;2022-08-07T09:05:50;100509.59;;;22.25;37.67
47883;BME280;37739;50.350;7.578;2022-08-07T09:11:26;100493.91;;;22.40;36.58
47883;BME280;37739;50.350;7.578;2022-08-07T09:14:16;100487.81;;;22.46;35.82
47883;BME280;37739;50.350;7.578;2022-08-07T09:17:05;100493.03;;;22.67;35.75
47883;BME280;37739;50.350;7.578;2022-08-07T09:20:00;100491.25;;;22.82;36.34
47883;BME280;37739;50.350;7.578;2022-08-07T09:22:40;100493.88;;;22.85;36.72
47883;BME280;37739;50.350;7.578;2022-08-07T09:27:56;100486.84;;;23.10;35.39
47883;BME280;37739;50.350;7.578;2022-08-07T09:30:30;100486.78;;;23.24;35.51
47883;BME280;37739;50.350;7.578;2022-08-07T09:36:18;100485.81;;;23.40;34.80
47883;BME280;37739;50.350;7.578;2022-08-07T09:38:50;100483.03;;;23.72;35.44
47883;BME280;37739;50.350;7.578;2022-08-07T09:41:45;100482.13;;;23.77;33.78
47883;BME280;37739;50.350;7.578;2022-08-07T10:03:20;100443.91;;;24.65;32.29
47883;BME280;37739;50.350;7.578;2022-08-07T10:09:06;100441.63;;;25.09;32.26
47883;BME280;37739;50.350;7.578;2022-08-07T10:11:54;100432.91;;;25.05;32.00
47883;BME280;37739;50.350;7.578;2022-08-07T10:31:06;100420.81;;;25.62;31.81
47883;BME280;37739;50.350;7.578;2022-08-07T10:42:27;100402.53;;;26.12;29.36
47883;BME280;37739;50.350;7.578;2022-08-07T10:47:53;100401.06;;;26.43;28.93
47883;BME280;37739;50.350;7.578;2022-08-07T10:50:30;100406.50;;;26.33;28.00
47883;BME280;37739;50.350;7.578;2022-08-07T10:56:04;100399.50;;;26.33;28.52
47883;BME280;37739;50.350;7.578;2022-08-07T10:58:50;100390.25;;;26.60;26.68
47883;BME280;37739;50.350;7.578;2022-08-07T11:04:36;100388.78;;;26.89;26.45
47883;BME280;37739;50.350;7.578;2022-08-07T11:09:53;100381.66;;;27.35;26.67
47883;BME280;37739;50.350;7.578;2022-08-07T11:12:29;100385.88;;;27.01;26.74
47883;BME280;37739;50.350;7.578;2022-08-07T11:15:09;100370.56;;;26.78;26.09
47883;BME280;37739;50.350;7.578;2022-08-07T11:17:48;100364.16;;;26.92;27.03
47883;BME280;37739;50.350;7.578;2022-08-07T11:20:23;100370.09;;;27.42;25.73
47883;BME280;37739;50.350;7.578;2022-08-07T11:23:02;100363.66;;;27.54;25.79
47883;BME280;37739;50.350;7.578;2022-08-07T11:25:43;100360.38;;;27.03;25.41
47883;BME280;37739;50.350;7.578;2022-08-07T11:28:18;100355.31;;;26.94;25.61
47883;BME280;37739;50.350;7.578;2022-08-07T11:31:30;100351.44;;;27.12;25.05
47883;BME280;37739;50.350;7.578;2022-08-07T11:34:21;100346.78;;;27.61;25.92
47883;BME280;37739;50.350;7.578;2022-08-07T11:37:00;100340.34;;;27.73;25.94
47883;BME280;37739;50.350;7.578;2022-08-07T11:39:47;100340.91;;;27.50;25.32
47883;BME280;37739;50.350;7.578;2022-08-07T11:42:29;100329.50;;;27.85;26.42
47883;BME280;37739;50.350;7.578;2022-08-07T12:08:21;100317.13;;;28.84;23.31
47883;BME280;37739;50.350;7.578;2022-08-07T12:11:02;100313.25;;;29.24;22.84
47883;BME280;37739;50.350;7.578;2022-08-07T12:13:47;100318.19;;;29.07;23.83
47883;BME280;37739;50.350;7.578;2022-08-07T12:16:23;100316.91;;;28.90;23.82
47883;BME280;37739;50.350;7.578;2022-08-07T12:19:04;100314.28;;;28.90;22.84
47883;BME280;37739;50.350;7.578;2022-08-07T12:22:03;100315.09;;;28.64;23.55
47883;BME280;37739;50.350;7.578;2022-08-07T12:27:38;100322.03;;;29.25;22.99
47883;BME280;37739;50.350;7.578;2022-08-07T12:30:05;100316.78;;;29.51;22.69
47883;BME280;37739;50.350;7.578;2022-08-07T12:35:09;100317.53;;;29.28;23.04
47883;BME280;37739;50.350;7.578;2022-08-07T12:37:37;100309.75;;;29.24;22.72
47883;BME280;37739;50.350;7.578;2022-08-07T12:40:08;100307.16;;;29.22;22.71
47883;BME280;37739;50.350;7.578;2022-08-07T12:42:39;100304.31;;;29.28;23.12
47883;BME280;37739;50.350;7.578;2022-08-07T12:45:16;100302.16;;;29.68;23.31
47883;BME280;37739;50.350;7.578;2022-08-07T12:56:30;100298.19;;;30.31;22.26
47883;BME280;37739;50.350;7.578;2022-08-07T12:58:58;100293.97;;;30.73;22.52
47883;BME280;37739;50.350;7.578;2022-08-07T13:02:00;100290.84;;;30.14;22.35
47883;BME280;37739;50.350;7.578;2022-08-07T13:04:39;100293.88;;;30.27;21.51
47883;BME280;37739;50.350;7.578;2022-08-07T13:21:31;100280.53;;;30.07;21.54
47883;BME280;37739;50.350;7.578;2022-08-07T13:26:41;100273.50;;;30.55;20.88
47883;BME280;37739;50.350;7.578;2022-08-07T13:29:11;100260.78;;;30.15;21.14
47883;BME280;37739;50.350;7.578;2022-08-07T13:31:49;100266.50;;;30.05;21.65
47883;BME280;37739;50.350;7.578;2022-08-07T13:34:36;100268.72;;;30.41;21.61
47883;BME280;37739;50.350;7.578;2022-08-07T13:37:12;100263.59;;;31.05;20.68
47883;BME280;37739;50.350;7.578;2022-08-07T13:40:01;100261.50;;;31.56;19.47
47883;BME280;37739;50.350;7.578;2022-08-07T13:42:29;100266.03;;;31.10;20.89
47883;BME280;37739;50.350;7.578;2022-08-07T13:45:02;100263.34;;;31.11;21.06
47883;BME280;37739;50.350;7.578;2022-08-07T13:47:34;100263.81;;;31.21;21.01
47883;BME280;37739;50.350;7.578;2022-08-07T13:50:02;100262.69;;;31.06;21.07
47883;BME280;37739;50.350;7.578;2022-08-07T13:52:30;100257.81;;;31.38;20.73
47883;BME280;37739;50.350;7.578;2022-08-07T13:54:58;100242.72;;;32.22;19.85
47883;BME280;37739;50.350;7.578;2022-08-07T13:57:32;100245.38;;;32.41;19.56
47883;BME280;37739;50.350;7.578;2022-08-07T13:59:59;100255.13;;;31.60;20.24
47883;BME280;37739;50.350;7.578;2022-08-07T14:02:32;100249.78;;;31.82;20.02
47883;BME280;37739;50.350;7.578;2022-08-07T14:05:01;100241.22;;;31.55;20.86
47883;BME280;37739;50.350;7.578;2022-08-07T14:07:36;100239.94;;;31.84;20.50
47883;BME280;37739;50.350;7.578;2022-08-07T14:10:02;100233.38;;;31.09;20.51
47883;BME280;37739;50.350;7.578;2022-08-07T14:17:56;100222.97;;;32.47;19.62
47883;BME280;37739;50.350;7.578;2022-08-07T14:20:28;100226.56;;;32.84;19.56
47883;BME280;37739;50.350;7.578;2022-08-07T14:23:13;100215.09;;;33.01;18.88
47883;BME280;37739;50.350;7.578;2022-08-07T14:25:43;100217.03;;;32.97;18.80
47883;BME280;37739;50.350;7.578;2022-08-07T14:28:13;100215.50;;;32.55;19.60
47883;BME280;37739;50.350;7.578;2022-08-07T14:30:39;100217.16;;;32.20;19.69
47883;BME280;37739;50.350;7.578;2022-08-07T14:33:11;100217.88;;;32.23;19.86
47883;BME280;37739;50.350;7.578;2022-08-07T14:35:38;100210.13;;;31.98;19.43
47883;BME280;37739;50.350;7.578;2022-08-07T14:38:05;100212.44;;;32.26;20.11
47883;BME280;37739;50.350;7.578;2022-08-07T14:40:34;100211.31;;;32.88;19.33
47883;BME280;37739;50.350;7.578;2022-08-07T14:43:03;100211.50;;;33.02;18.79
47883;BME280;37739;50.350;7.578;2022-08-07T14:45:39;100205.88;;;32.72;18.85
47883;BME280;37739;50.350;7.578;2022-08-07T14:48:06;100200.47;;;31.97;19.74
47883;BME280;37739;50.350;7.578;2022-08-07T14:50:40;100198.13;;;32.10;19.92
47883;BME280;37739;50.350;7.578;2022-08-07T14:53:11;100191.41;;;32.60;18.69
47883;BME280;37739;50.350;7.578;2022-08-07T14:55:40;100196.03;;;32.74;19.26
47883;BME280;37739;50.350;7.578;2022-08-07T14:58:12;100198.69;;;33.62;18.28
47883;BME280;37739;50.350;7.578;2022-08-07T15:00:41;100197.56;;;32.97;19.36
47883;BME280;37739;50.350;7.578;2022-08-07T15:03:10;100197.66;;;32.95;19.24
47883;BME280;37739;50.350;7.578;2022-08-07T15:05:37;100200.00;;;32.27;19.78
47883;BME280;37739;50.350;7.578;2022-08-07T15:08:05;100199.50;;;32.38;19.27
47883;BME280;37739;50.350;7.578;2022-08-07T15:10:39;100200.81;;;32.67;19.03
47883;BME280;37739;50.350;7.578;2022-08-07T15:13:16;100191.28;;;33.17;18.77
47883;BME280;37739;50.350;7.578;2022-08-07T15:15:50;100193.84;;;32.26;19.28
47883;BME280;37739;50.350;7.578;2022-08-07T15:18:30;100188.84;;;32.20;19.58
47883;BME280;37739;50.350;7.578;2022-08-07T15:20:59;100184.03;;;31.89;20.10
47883;BME280;37739;50.350;7.578;2022-08-07T15:23:31;100187.81;;;31.42;20.34
47883;BME280;37739;50.350;7.578;2022-08-07T15:26:02;100183.88;;;30.89;20.95
47883;BME280;37739;50.350;7.578;2022-08-07T15:28:31;100176.47;;;30.31;21.45
47883;BME280;37739;50.350;7.578;2022-08-07T15:31:03;100187.03;;;30.31;21.55
47883;BME280;37739;50.350;7.578;2022-08-07T15:33:31;100179.72;;;30.14;22.04